sensor_id;sensor_type;location;lat;lon;timestamp;P1;durP1;ratioP1;P2;durP2;ratioP2
9459;SDS011;4768;42.664;23.240;2023-07-31T00:00:42;3.50;;;3.10;;
9459;SDS011;4768;42.664;23.240;2023-07-31T00:03:09;3.30;;;3.00;;
9459;SDS011;4768;42.664;23.240;2023-07-31T00:05:36;3.20;;;2.73;;
9459;SDS011;4768;42.664;23.240;2023-07-31T00:08:02;3.23;;;2.50;;
9459;SDS011;4768;42.664;23.240;2023-07-31T00:10:29;2.97;;;2.67;;
9459;SDS011;4768;42.664;23.240;2023-07-31T00:12:55;2.97;;;2.67;;
9459;SDS011;4768;42.664;23.240;2023-07-31T00:15:23;3.90;;;2.80;;
9459;SDS011;4768;42.664;23.240;2023-07-31T00:17:49;3.57;;;3.27;;
9459;SDS011;4768;42.664;23.240;2023-07-31T00:20:16;3.80;;;3.50;;
9459;SDS011;4768;42.664;23.240;2023-07-31T00:22:42;4.50;;;3.27;;
9459;SDS011;4768;42.664;23.240;2023-07-31T00:25:09;5.00;;;3.87;;
9459;SDS011;4768;42.664;23.240;2023-07-31T00:27:35;4.70;;;3.70;;
9459;SDS011;4768;42.664;23.240;2023-07-31T00:30:02;4.07;;;3.67;;
9459;SDS011;4768;42.664;23.240;2023-07-31T00:32:29;4.03;;;3.70;;
9459;SDS011;4768;42.664;23.240;2023-07-31T00:34:56;4.00;;;3.60;;
9459;SDS011;4768;42.664;23.240;2023-07-31T00:37:22;4.23;;;3.77;;
9459;SDS011;4768;42.664;23.240;2023-07-31T00:39:49;4.37;;;3.73;;
9459;SDS011;4768;42.664;23.240;2023-07-31T00:42:15;5.23;;;4.10;;
9459;SDS011;4768;42.664;23.240;2023-07-31T00:44:43;5.10;;;4.60;;
9459;SDS011;4768;42.664;23.240;2023-07-31T00:47:09;5.20;;;4.70;;
9459;SDS011;4768;42.664;23.240;2023-07-31T00:49:37;6.57;;;5.17;;
9459;SDS011;4768;42.664;23.240;2023-07-31T00:52:04;6.97;;;5.70;;
9459;SDS011;4768;42.664;23.240;2023-07-31T00:54:31;5.80;;;5.30;;
9459;SDS011;4768;42.664;23.240;2023-07-31T00:56:57;7.23;;;6.50;;
9459;SDS011;4768;42.664;23.240;2023-07-31T00:59:24;7.90;;;6.80;;
9459;SDS011;4768;42.664;23.240;2023-07-31T01:01:50;7.80;;;7.00;;
9459;SDS011;4768;42.664;23.240;2023-07-31T01:04:17;8.33;;;6.70;;
9459;SDS011;4768;42.664;23.240;2023-07-31T01:06:47;8.63;;;7.83;;
9459;SDS011;4768;42.664;23.240;2023-07-31T01:09:17;10.13;;;8.50;;
9459;SDS011;4768;42.664;23.240;2023-07-31T01:11:46;10.37;;;9.00;;
9459;SDS011;4768;42.664;23.240;2023-07-31T01:14:14;11.87;;;10.10;;
9459;SDS011;4768;42.664;23.240;2023-07-31T01:16:40;12.07;;;10.37;;
9459;SDS011;4768;42.664;23.240;2023-07-31T01:19:07;11.40;;;10.17;;
9459;SDS011;4768;42.664;23.240;2023-07-31T01:21:41;13.17;;;11.03;;
9459;SDS011;4768;42.664;23.240;2023-07-31T01:24:20;17.47;;;11.53;;
9459;SDS011;4768;42.664;23.240;2023-07-31T01:26:51;13.87;;;12.37;;
9459;SDS011;4768;42.664;23.240;2023-07-31T01:29:20;14.27;;;11.93;;
9459;SDS011;4768;42.664;23.240;2023-07-31T01:31:50;16.13;;;13.53;;
9459;SDS011;4768;42.664;23.240;2023-07-31T01:34:19;15.67;;;13.33;;
9459;SDS011;4768;42.664;23.240;2023-07-31T01:36:47;15.87;;;13.57;;
9459;SDS011;4768;42.664;23.240;2023-07-31T01:39:13;18.17;;;14.83;;
9459;SDS011;4768;42.664;23.240;2023-07-31T01:41:40;19.37;;;14.47;;
9459;SDS011;4768;42.664;23.240;2023-07-31T01:44:08;16.73;;;14.73;;
9459;SDS011;4768;42.664;23.240;2023-07-31T01:46:35;17.20;;;14.47;;
9459;SDS011;4768;42.664;23.240;2023-07-31T01:49:01;16.77;;;14.97;;
9459;SDS011;4768;42.664;23.240;2023-07-31T01:51:28;16.73;;;14.70;;
9459;SDS011;4768;42.664;23.240;2023-07-31T01:53:54;16.53;;;14.60;;
9459;SDS011;4768;42.664;23.240;2023-07-31T01:56:21;18.07;;;15.07;;
9459;SDS011;4768;42.664;23.240;2023-07-31T01:58:47;17.53;;;14.90;;
9459;SDS011;4768;42.664;23.240;2023-07-31T02:01:15;16.33;;;14.63;;
9459;SDS011;4768;42.664;23.240;2023-07-31T02:03:41;18.47;;;15.93;;
9459;SDS011;4768;42.664;23.240;2023-07-31T02:06:08;20.97;;;16.27;;
9459;SDS011;4768;42.664;23.240;2023-07-31T02:08:34;17.87;;;15.37;;
9459;SDS011;4768;42.664;23.240;2023-07-31T02:11:01;17.30;;;15.40;;
9459;SDS011;4768;42.664;23.240;2023-07-31T02:13:27;18.17;;;16.03;;
9459;SDS011;4768;42.664;23.240;2023-07-31T02:15:54;19.13;;;16.60;;
9459;SDS011;4768;42.664;23.240;2023-07-31T02:18:22;17.43;;;15.53;;
9459;SDS011;4768;42.664;23.240;2023-07-31T02:20:49;16.83;;;14.73;;
9459;SDS011;4768;42.664;23.240;2023-07-31T02:23:16;17.77;;;15.40;;
9459;SDS011;4768;42.664;23.240;2023-07-31T02:25:42;17.73;;;14.67;;
9459;SDS011;4768;42.664;23.240;2023-07-31T02:28:09;16.07;;;13.90;;
9459;SDS011;4768;42.664;23.240;2023-07-31T02:30:35;18.07;;;15.50;;
9459;SDS011;4768;42.664;23.240;2023-07-31T02:33:02;17.33;;;14.77;;
9459;SDS011;4768;42.664;23.240;2023-07-31T02:35:29;17.27;;;15.33;;
9459;SDS011;4768;42.664;23.240;2023-07-31T02:37:56;17.23;;;15.40;;
9459;SDS011;4768;42.664;23.240;2023-07-31T02:40:22;17.53;;;15.20;;
9459;SDS011;4768;42.664;23.240;2023-07-31T02:42:49;19.23;;;14.83;;
9459;SDS011;4768;42.664;23.240;2023-07-31T02:45:16;18.93;;;16.00;;
9459;SDS011;4768;42.664;23.240;2023-07-31T02:47:42;19.27;;;16.03;;
9459;SDS011;4768;42.664;23.240;2023-07-31T02:50:09;17.73;;;15.43;;
9459;SDS011;4768;42.664;23.240;2023-07-31T02:52:37;18.70;;;15.77;;
9459;SDS011;4768;42.664;23.240;2023-07-31T02:55:03;20.97;;;16.83;;
9459;SDS011;4768;42.664;23.240;2023-07-31T02:57:30;18.90;;;15.57;;
9459;SDS011;4768;42.664;23.240;2023-07-31T02:59:56;18.43;;;16.20;;
9459;SDS011;4768;42.664;23.240;2023-07-31T03:02:23;19.67;;;16.30;;
9459;SDS011;4768;42.664;23.240;2023-07-31T03:04:49;19.53;;;16.20;;
9459;SDS011;4768;42.664;23.240;2023-07-31T03:07:16;19.80;;;16.83;;
9459;SDS011;4768;42.664;23.240;2023-07-31T03:09:44;17.23;;;15.43;;
9459;SDS011;4768;42.664;23.240;2023-07-31T03:12:10;18.33;;;16.20;;
9459;SDS011;4768;42.664;23.240;2023-07-31T03:14:37;18.53;;;15.50;;
9459;SDS011;4768;42.664;23.240;2023-07-31T03:17:03;19.57;;;16.17;;
9459;SDS011;4768;42.664;23.240;2023-07-31T03:19:30;17.20;;;14.97;;
9459;SDS011;4768;42.664;23.240;2023-07-31T03:21:57;18.70;;;16.17;;
9459;SDS011;4768;42.664;23.240;2023-07-31T03:24:23;20.20;;;16.40;;
9459;SDS011;4768;42.664;23.240;2023-07-31T03:26:51;19.53;;;15.90;;
9459;SDS011;4768;42.664;23.240;2023-07-31T03:29:18;19.93;;;16.10;;
9459;SDS011;4768;42.664;23.240;2023-07-31T03:31:44;19.37;;;16.60;;
9459;SDS011;4768;42.664;23.240;2023-07-31T03:34:10;19.23;;;16.23;;
9459;SDS011;4768;42.664;23.240;2023-07-31T03:36:37;20.73;;;17.40;;
9459;SDS011;4768;42.664;23.240;2023-07-31T03:39:03;22.00;;;17.00;;
9459;SDS011;4768;42.664;23.240;2023-07-31T03:41:30;19.97;;;16.70;;
9459;SDS011;4768;42.664;23.240;2023-07-31T03:43:58;20.40;;;16.27;;
9459;SDS011;4768;42.664;23.240;2023-07-31T03:46:24;18.70;;;15.77;;
9459;SDS011;4768;42.664;23.240;2023-07-31T03:48:51;20.20;;;15.73;;
9459;SDS011;4768;42.664;23.240;2023-07-31T03:51:17;19.17;;;15.40;;
9459;SDS011;4768;42.664;23.240;2023-07-31T03:53:44;20.07;;;16.20;;
9459;SDS011;4768;42.664;23.240;2023-07-31T03:56:10;18.03;;;15.43;;
9459;SDS011;4768;42.664;23.240;2023-07-31T03:58:37;19.40;;;16.10;;
9459;SDS011;4768;42.664;23.240;2023-07-31T04:01:05;18.37;;;15.80;;
9459;SDS011;4768;42.664;23.240;2023-07-31T04:03:31;21.40;;;17.23;;
9459;SDS011;4768;42.664;23.240;2023-07-31T04:05:58;19.13;;;16.20;;
9459;SDS011;4768;42.664;23.240;2023-07-31T04:08:24;19.73;;;16.27;;
9459;SDS011;4768;42.664;23.240;2023-07-31T04:10:51;19.07;;;16.17;;
9459;SDS011;4768;42.664;23.240;2023-07-31T04:13:17;20.37;;;16.03;;
9459;SDS011;4768;42.664;23.240;2023-07-31T04:15:47;19.63;;;16.10;;
9459;SDS011;4768;42.664;23.240;2023-07-31T04:18:15;22.53;;;16.57;;
9459;SDS011;4768;42.664;23.240;2023-07-31T04:20:42;20.77;;;15.77;;
9459;SDS011;4768;42.664;23.240;2023-07-31T04:23:08;19.13;;;15.77;;
9459;SDS011;4768;42.664;23.240;2023-07-31T04:25:35;18.40;;;14.97;;
9459;SDS011;4768;42.664;23.240;2023-07-31T04:28:01;18.47;;;15.00;;
9459;SDS011;4768;42.664;23.240;2023-07-31T04:30:28;19.10;;;15.57;;
9459;SDS011;4768;42.664;23.240;2023-07-31T04:32:54;17.83;;;14.73;;
9459;SDS011;4768;42.664;23.240;2023-07-31T04:35:22;19.10;;;15.43;;
9459;SDS011;4768;42.664;23.240;2023-07-31T04:37:48;19.57;;;16.13;;
9459;SDS011;4768;42.664;23.240;2023-07-31T04:40:15;18.83;;;15.10;;
9459;SDS011;4768;42.664;23.240;2023-07-31T04:42:41;18.90;;;15.27;;
9459;SDS011;4768;42.664;23.240;2023-07-31T04:45:08;18.70;;;15.17;;
9459;SDS011;4768;42.664;23.240;2023-07-31T04:47:35;21.10;;;15.03;;
9459;SDS011;4768;42.664;23.240;2023-07-31T04:50:01;16.40;;;14.23;;
9459;SDS011;4768;42.664;23.240;2023-07-31T04:52:29;17.73;;;13.87;;
9459;SDS011;4768;42.664;23.240;2023-07-31T04:54:56;14.77;;;13.17;;
9459;SDS011;4768;42.664;23.240;2023-07-31T04:57:22;18.13;;;15.10;;
9459;SDS011;4768;42.664;23.240;2023-07-31T04:59:49;16.23;;;13.10;;
9459;SDS011;4768;42.664;23.240;2023-07-31T05:02:15;14.67;;;13.10;;
9459;SDS011;4768;42.664;23.240;2023-07-31T05:04:42;14.13;;;12.60;;
9459;SDS011;4768;42.664;23.240;2023-07-31T05:07:08;15.50;;;13.90;;
9459;SDS011;4768;42.664;23.240;2023-07-31T05:09:36;16.57;;;13.67;;
9459;SDS011;4768;42.664;23.240;2023-07-31T05:12:04;15.23;;;13.20;;
9459;SDS011;4768;42.664;23.240;2023-07-31T05:14:31;19.87;;;14.13;;
9459;SDS011;4768;42.664;23.240;2023-07-31T05:16:57;14.33;;;12.50;;
9459;SDS011;4768;42.664;23.240;2023-07-31T05:19:24;14.80;;;12.20;;
9459;SDS011;4768;42.664;23.240;2023-07-31T05:21:50;13.87;;;11.80;;
9459;SDS011;4768;42.664;23.240;2023-07-31T05:24:17;13.73;;;10.97;;
9459;SDS011;4768;42.664;23.240;2023-07-31T05:26:45;13.53;;;11.67;;
9459;SDS011;4768;42.664;23.240;2023-07-31T05:29:11;14.87;;;10.97;;
9459;SDS011;4768;42.664;23.240;2023-07-31T05:31:37;11.87;;;9.93;;
9459;SDS011;4768;42.664;23.240;2023-07-31T05:34:04;10.93;;;9.83;;
9459;SDS011;4768;42.664;23.240;2023-07-31T05:36:31;11.40;;;9.13;;
9459;SDS011;4768;42.664;23.240;2023-07-31T05:38:57;11.57;;;8.83;;
9459;SDS011;4768;42.664;23.240;2023-07-31T05:41:31;9.97;;;8.97;;
9459;SDS011;4768;42.664;23.240;2023-07-31T05:43:59;11.37;;;9.50;;
9459;SDS011;4768;42.664;23.240;2023-07-31T05:46:25;10.03;;;9.03;;
9459;SDS011;4768;42.664;23.240;2023-07-31T05:48:52;9.23;;;8.27;;
9459;SDS011;4768;42.664;23.240;2023-07-31T05:51:18;8.80;;;7.40;;
9459;SDS011;4768;42.664;23.240;2023-07-31T05:53:44;9.20;;;7.00;;
9459;SDS011;4768;42.664;23.240;2023-07-31T05:56:11;7.47;;;6.77;;
9459;SDS011;4768;42.664;23.240;2023-07-31T05:58:37;6.40;;;5.70;;
9459;SDS011;4768;42.664;23.240;2023-07-31T06:01:05;8.13;;;6.00;;
9459;SDS011;4768;42.664;23.240;2023-07-31T06:03:32;6.40;;;5.80;;
9459;SDS011;4768;42.664;23.240;2023-07-31T06:05:58;5.77;;;5.20;;
9459;SDS011;4768;42.664;23.240;2023-07-31T06:08:25;6.00;;;5.40;;
9459;SDS011;4768;42.664;23.240;2023-07-31T06:10:51;5.05;;;4.55;;
9459;SDS011;4768;42.664;23.240;2023-07-31T06:13:17;5.20;;;4.70;;
9459;SDS011;4768;42.664;23.240;2023-07-31T06:15:44;4.75;;;4.20;;
9459;SDS011;4768;42.664;23.240;2023-07-31T06:18:12;4.72;;;4.32;;
9459;SDS011;4768;42.664;23.240;2023-07-31T06:20:38;4.65;;;4.25;;
9459;SDS011;4768;42.664;23.240;2023-07-31T06:23:05;5.22;;;4.10;;
9459;SDS011;4768;42.664;23.240;2023-07-31T06:25:32;4.50;;;4.10;;
9459;SDS011;4768;42.664;23.240;2023-07-31T06:27:58;3.78;;;3.47;;
9459;SDS011;4768;42.664;23.240;2023-07-31T06:30:25;4.05;;;3.60;;
9459;SDS011;4768;42.664;23.240;2023-07-31T06:32:51;4.13;;;3.72;;
9459;SDS011;4768;42.664;23.240;2023-07-31T06:35:19;3.30;;;3.05;;
9459;SDS011;4768;42.664;23.240;2023-07-31T06:37:46;4.80;;;3.42;;
9459;SDS011;4768;42.664;23.240;2023-07-31T06:40:12;3.60;;;3.30;;
9459;SDS011;4768;42.664;23.240;2023-07-31T06:42:39;3.43;;;3.13;;
9459;SDS011;4768;42.664;23.240;2023-07-31T06:45:05;3.97;;;3.57;;
9459;SDS011;4768;42.664;23.240;2023-07-31T06:47:32;3.22;;;3.03;;
9459;SDS011;4768;42.664;23.240;2023-07-31T06:49:59;3.50;;;3.20;;
9459;SDS011;4768;42.664;23.240;2023-07-31T06:52:27;3.15;;;2.88;;
9459;SDS011;4768;42.664;23.240;2023-07-31T06:55:02;3.22;;;2.95;;
9459;SDS011;4768;42.664;23.240;2023-07-31T06:57:29;4.20;;;2.90;;
9459;SDS011;4768;42.664;23.240;2023-07-31T06:59:56;3.08;;;2.78;;
9459;SDS011;4768;42.664;23.240;2023-07-31T07:02:22;3.10;;;2.80;;
9459;SDS011;4768;42.664;23.240;2023-07-31T07:04:49;2.67;;;2.30;;
9459;SDS011;4768;42.664;23.240;2023-07-31T07:07:16;2.33;;;2.13;;
9459;SDS011;4768;42.664;23.240;2023-07-31T07:09:44;2.55;;;2.35;;
9459;SDS011;4768;42.664;23.240;2023-07-31T07:12:10;2.17;;;1.98;;
9459;SDS011;4768;42.664;23.240;2023-07-31T07:14:37;2.75;;;2.50;;
9459;SDS011;4768;42.664;23.240;2023-07-31T07:17:03;2.72;;;2.53;;
9459;SDS011;4768;42.664;23.240;2023-07-31T07:19:30;2.40;;;2.20;;
9459;SDS011;4768;42.664;23.240;2023-07-31T07:21:56;2.00;;;1.80;;
9459;SDS011;4768;42.664;23.240;2023-07-31T07:24:24;1.92;;;1.83;;
9459;SDS011;4768;42.664;23.240;2023-07-31T07:26:52;2.70;;;2.33;;
9459;SDS011;4768;42.664;23.240;2023-07-31T07:29:19;2.20;;;1.90;;
9459;SDS011;4768;42.664;23.240;2023-07-31T07:31:45;1.88;;;1.77;;
9459;SDS011;4768;42.664;23.240;2023-07-31T07:34:12;2.20;;;2.00;;
9459;SDS011;4768;42.664;23.240;2023-07-31T07:36:38;2.33;;;2.13;;
9459;SDS011;4768;42.664;23.240;2023-07-31T07:39:05;2.05;;;1.95;;
9459;SDS011;4768;42.664;23.240;2023-07-31T07:41:31;1.75;;;1.65;;
9459;SDS011;4768;42.664;23.240;2023-07-31T07:43:59;2.20;;;2.10;;
9459;SDS011;4768;42.664;23.240;2023-07-31T07:46:25;2.33;;;2.13;;
9459;SDS011;4768;42.664;23.240;2023-07-31T07:48:52;2.30;;;2.10;;
9459;SDS011;4768;42.664;23.240;2023-07-31T07:51:18;2.00;;;1.80;;
9459;SDS011;4768;42.664;23.240;2023-07-31T07:53:45;2.35;;;2.15;;
9459;SDS011;4768;42.664;23.240;2023-07-31T07:56:11;3.25;;;1.90;;
9459;SDS011;4768;42.664;23.240;2023-07-31T07:58:38;2.50;;;2.30;;
9459;SDS011;4768;42.664;23.240;2023-07-31T08:01:05;2.40;;;2.20;;
9459;SDS011;4768;42.664;23.240;2023-07-31T08:03:32;2.72;;;2.10;;
9459;SDS011;4768;42.664;23.240;2023-07-31T08:05:58;3.92;;;1.85;;
9459;SDS011;4768;42.664;23.240;2023-07-31T08:08:25;2.38;;;2.17;;
9459;SDS011;4768;42.664;23.240;2023-07-31T08:10:51;2.53;;;1.95;;
9459;SDS011;4768;42.664;23.240;2023-07-31T08:13:18;2.00;;;1.90;;
9459;SDS011;4768;42.664;23.240;2023-07-31T08:15:44;2.25;;;2.10;;
9459;SDS011;4768;42.664;23.240;2023-07-31T08:18:12;2.38;;;2.17;;
9459;SDS011;4768;42.664;23.240;2023-07-31T08:20:38;2.28;;;2.08;;
9459;SDS011;4768;42.664;23.240;2023-07-31T08:23:05;3.95;;;2.20;;
9459;SDS011;4768;42.664;23.240;2023-07-31T08:25:34;2.00;;;1.90;;
9459;SDS011;4768;42.664;23.240;2023-07-31T08:28:00;1.77;;;1.67;;
9459;SDS011;4768;42.664;23.240;2023-07-31T08:30:27;2.20;;;2.00;;
9459;SDS011;4768;42.664;23.240;2023-07-31T08:32:53;2.03;;;1.92;;
9459;SDS011;4768;42.664;23.240;2023-07-31T08:35:21;3.20;;;1.90;;
9459;SDS011;4768;42.664;23.240;2023-07-31T08:37:47;2.42;;;2.17;;
9459;SDS011;4768;42.664;23.240;2023-07-31T08:40:14;1.88;;;1.58;;
9459;SDS011;4768;42.664;23.240;2023-07-31T08:42:44;2.30;;;2.10;;
9459;SDS011;4768;42.664;23.240;2023-07-31T08:45:12;2.67;;;1.90;;
9459;SDS011;4768;42.664;23.240;2023-07-31T08:47:39;2.38;;;1.98;;
9459;SDS011;4768;42.664;23.240;2023-07-31T08:50:07;2.30;;;2.00;;
9459;SDS011;4768;42.664;23.240;2023-07-31T08:52:35;2.80;;;1.98;;
9459;SDS011;4768;42.664;23.240;2023-07-31T08:55:01;1.90;;;1.80;;
9459;SDS011;4768;42.664;23.240;2023-07-31T08:57:28;2.17;;;1.90;;
9459;SDS011;4768;42.664;23.240;2023-07-31T08:59:54;1.85;;;1.55;;
9459;SDS011;4768;42.664;23.240;2023-07-31T09:02:21;2.53;;;2.33;;
9459;SDS011;4768;42.664;23.240;2023-07-31T09:04:49;2.03;;;1.92;;
9459;SDS011;4768;42.664;23.240;2023-07-31T09:07:15;2.85;;;2.08;;
9459;SDS011;4768;42.664;23.240;2023-07-31T09:09:43;2.22;;;2.05;;
9459;SDS011;4768;42.664;23.240;2023-07-31T09:12:11;2.00;;;1.90;;
9459;SDS011;4768;42.664;23.240;2023-07-31T09:14:38;2.33;;;2.13;;
9459;SDS011;4768;42.664;23.240;2023-07-31T09:17:05;2.10;;;1.90;;
9459;SDS011;4768;42.664;23.240;2023-07-31T09:19:32;2.58;;;2.38;;
9459;SDS011;4768;42.664;23.240;2023-07-31T09:21:59;2.25;;;2.05;;
9459;SDS011;4768;42.664;23.240;2023-07-31T09:24:26;2.58;;;2.00;;
9459;SDS011;4768;42.664;23.240;2023-07-31T09:26:54;2.00;;;1.90;;
9459;SDS011;4768;42.664;23.240;2023-07-31T09:29:21;2.05;;;1.95;;
9459;SDS011;4768;42.664;23.240;2023-07-31T09:31:48;2.05;;;1.95;;
9459;SDS011;4768;42.664;23.240;2023-07-31T09:34:15;2.22;;;2.03;;
9459;SDS011;4768;42.664;23.240;2023-07-31T09:36:41;2.60;;;2.40;;
9459;SDS011;4768;42.664;23.240;2023-07-31T09:39:08;2.28;;;2.08;;
9459;SDS011;4768;42.664;23.240;2023-07-31T09:41:36;4.32;;;2.30;;
9459;SDS011;4768;42.664;23.240;2023-07-31T09:44:04;2.78;;;2.20;;
9459;SDS011;4768;42.664;23.240;2023-07-31T09:46:30;1.85;;;1.75;;
9459;SDS011;4768;42.664;23.240;2023-07-31T09:49:04;2.00;;;1.90;;
9459;SDS011;4768;42.664;23.240;2023-07-31T09:51:31;2.33;;;2.13;;
9459;SDS011;4768;42.664;23.240;2023-07-31T09:54:03;2.40;;;2.20;;
9459;SDS011;4768;42.664;23.240;2023-07-31T09:56:29;3.65;;;2.00;;
9459;SDS011;4768;42.664;23.240;2023-07-31T09:58:58;2.40;;;2.20;;
9459;SDS011;4768;42.664;23.240;2023-07-31T10:01:26;2.03;;;1.92;;
9459;SDS011;4768;42.664;23.240;2023-07-31T10:03:52;2.80;;;1.83;;
9459;SDS011;4768;42.664;23.240;2023-07-31T10:06:19;2.28;;;1.88;;
9459;SDS011;4768;42.664;23.240;2023-07-31T10:08:45;2.30;;;2.00;;
9459;SDS011;4768;42.664;23.240;2023-07-31T10:11:13;2.10;;;1.90;;
9459;SDS011;4768;42.664;23.240;2023-07-31T10:13:40;1.63;;;1.52;;
9459;SDS011;4768;42.664;23.240;2023-07-31T10:16:07;1.75;;;1.55;;
9459;SDS011;4768;42.664;23.240;2023-07-31T10:18:35;1.50;;;1.40;;
9459;SDS011;4768;42.664;23.240;2023-07-31T10:21:02;3.17;;;1.73;;
9459;SDS011;4768;42.664;23.240;2023-07-31T10:23:29;2.15;;;1.67;;
9459;SDS011;4768;42.664;23.240;2023-07-31T10:25:55;3.97;;;1.70;;
9459;SDS011;4768;42.664;23.240;2023-07-31T10:28:23;1.73;;;1.63;;
9459;SDS011;4768;42.664;23.240;2023-07-31T10:30:51;1.50;;;1.40;;
9459;SDS011;4768;42.664;23.240;2023-07-31T10:33:18;3.25;;;1.75;;
9459;SDS011;4768;42.664;23.240;2023-07-31T10:35:48;1.70;;;1.60;;
9459;SDS011;4768;42.664;23.240;2023-07-31T10:38:14;5.38;;;1.83;;
9459;SDS011;4768;42.664;23.240;2023-07-31T10:40:41;1.77;;;1.60;;
9459;SDS011;4768;42.664;23.240;2023-07-31T10:43:08;1.63;;;1.30;;
9459;SDS011;4768;42.664;23.240;2023-07-31T10:45:36;1.50;;;1.40;;
9459;SDS011;4768;42.664;23.240;2023-07-31T10:48:04;1.70;;;1.60;;
9459;SDS011;4768;42.664;23.240;2023-07-31T10:50:31;1.70;;;1.60;;
9459;SDS011;4768;42.664;23.240;2023-07-31T10:53:00;1.52;;;1.42;;
9459;SDS011;4768;42.664;23.240;2023-07-31T10:55:28;3.33;;;1.45;;
9459;SDS011;4768;42.664;23.240;2023-07-31T10:57:54;5.07;;;1.40;;
9459;SDS011;4768;42.664;23.240;2023-07-31T11:00:22;1.40;;;1.30;;
9459;SDS011;4768;42.664;23.240;2023-07-31T11:02:59;1.67;;;1.58;;
9459;SDS011;4768;42.664;23.240;2023-07-31T11:05:41;1.88;;;1.50;;
9459;SDS011;4768;42.664;23.240;2023-07-31T11:08:16;2.80;;;1.30;;
9459;SDS011;4768;42.664;23.240;2023-07-31T11:10:43;1.10;;;1.10;;
9459;SDS011;4768;42.664;23.240;2023-07-31T11:13:10;1.13;;;1.13;;
9459;SDS011;4768;42.664;23.240;2023-07-31T11:15:36;1.40;;;1.30;;
9459;SDS011;4768;42.664;23.240;2023-07-31T11:18:03;1.60;;;1.50;;
9459;SDS011;4768;42.664;23.240;2023-07-31T11:20:30;2.63;;;1.23;;
9459;SDS011;4768;42.664;23.240;2023-07-31T11:22:58;1.73;;;1.30;;
9459;SDS011;4768;42.664;23.240;2023-07-31T11:25:26;1.60;;;1.50;;
9459;SDS011;4768;42.664;23.240;2023-07-31T11:27:52;1.80;;;1.52;;
9459;SDS011;4768;42.664;23.240;2023-07-31T11:30:21;1.73;;;1.63;;
9459;SDS011;4768;42.664;23.240;2023-07-31T11:32:48;1.55;;;1.45;;
9459;SDS011;4768;42.664;23.240;2023-07-31T11:35:14;1.38;;;1.30;;
9459;SDS011;4768;42.664;23.240;2023-07-31T11:37:41;1.67;;;1.58;;
9459;SDS011;4768;42.664;23.240;2023-07-31T11:40:08;2.10;;;1.70;;
9459;SDS011;4768;42.664;23.240;2023-07-31T11:42:36;2.08;;;1.92;;
9459;SDS011;4768;42.664;23.240;2023-07-31T11:45:03;2.00;;;1.80;;
9459;SDS011;4768;42.664;23.240;2023-07-31T11:47:30;1.98;;;1.88;;
9459;SDS011;4768;42.664;23.240;2023-07-31T11:49:59;2.38;;;1.65;;
9459;SDS011;4768;42.664;23.240;2023-07-31T11:52:26;2.20;;;1.60;;
9459;SDS011;4768;42.664;23.240;2023-07-31T11:54:53;1.77;;;1.67;;
9459;SDS011;4768;42.664;23.240;2023-07-31T11:57:20;2.97;;;2.03;;
9459;SDS011;4768;42.664;23.240;2023-07-31T11:59:48;1.83;;;1.73;;
9459;SDS011;4768;42.664;23.240;2023-07-31T12:02:16;3.65;;;2.47;;
9459;SDS011;4768;42.664;23.240;2023-07-31T12:04:43;2.08;;;1.85;;
9459;SDS011;4768;42.664;23.240;2023-07-31T12:07:09;3.15;;;2.85;;
9459;SDS011;4768;42.664;23.240;2023-07-31T12:09:37;4.15;;;3.40;;
9459;SDS011;4768;42.664;23.240;2023-07-31T12:12:07;3.33;;;3.03;;
9459;SDS011;4768;42.664;23.240;2023-07-31T12:14:34;3.45;;;3.15;;
9459;SDS011;4768;42.664;23.240;2023-07-31T12:17:03;3.30;;;3.00;;
9459;SDS011;4768;42.664;23.240;2023-07-31T12:19:32;4.38;;;3.97;;
9459;SDS011;4768;42.664;23.240;2023-07-31T12:21:58;3.63;;;3.33;;
9459;SDS011;4768;42.664;23.240;2023-07-31T12:24:25;7.05;;;4.32;;
9459;SDS011;4768;42.664;23.240;2023-07-31T12:26:52;4.25;;;3.85;;
9459;SDS011;4768;42.664;23.240;2023-07-31T12:29:20;4.95;;;4.30;;
9459;SDS011;4768;42.664;23.240;2023-07-31T12:31:46;4.57;;;4.18;;
9459;SDS011;4768;42.664;23.240;2023-07-31T12:34:17;4.72;;;4.32;;
9459;SDS011;4768;42.664;23.240;2023-07-31T12:36:45;4.18;;;3.78;;
9459;SDS011;4768;42.664;23.240;2023-07-31T12:39:14;4.35;;;4.05;;
9459;SDS011;4768;42.664;23.240;2023-07-31T12:41:40;3.97;;;3.67;;
9459;SDS011;4768;42.664;23.240;2023-07-31T12:44:07;4.57;;;3.70;;
9459;SDS011;4768;42.664;23.240;2023-07-31T12:46:34;5.00;;;4.50;;
9459;SDS011;4768;42.664;23.240;2023-07-31T12:49:01;4.72;;;4.32;;
9459;SDS011;4768;42.664;23.240;2023-07-31T12:51:29;4.78;;;4.38;;
9459;SDS011;4768;42.664;23.240;2023-07-31T12:53:56;8.25;;;4.60;;
9459;SDS011;4768;42.664;23.240;2023-07-31T12:56:22;5.30;;;4.80;;
9459;SDS011;4768;42.664;23.240;2023-07-31T12:58:49;4.82;;;4.43;;
9459;SDS011;4768;42.664;23.240;2023-07-31T13:01:15;4.60;;;4.20;;
9459;SDS011;4768;42.664;23.240;2023-07-31T13:03:42;4.63;;;4.05;;
9459;SDS011;4768;42.664;23.240;2023-07-31T13:06:08;4.68;;;4.28;;
9459;SDS011;4768;42.664;23.240;2023-07-31T13:08:36;5.22;;;4.72;;
9459;SDS011;4768;42.664;23.240;2023-07-31T13:11:02;5.35;;;4.90;;
9459;SDS011;4768;42.664;23.240;2023-07-31T13:13:29;4.53;;;4.13;;
9459;SDS011;4768;42.664;23.240;2023-07-31T13:15:56;5.13;;;4.57;;
9459;SDS011;4768;42.664;23.240;2023-07-31T13:18:22;4.45;;;4.05;;
9459;SDS011;4768;42.664;23.240;2023-07-31T13:20:49;4.40;;;4.00;;
9459;SDS011;4768;42.664;23.240;2023-07-31T13:23:15;3.78;;;3.47;;
9459;SDS011;4768;42.664;23.240;2023-07-31T13:25:43;4.30;;;3.90;;
9459;SDS011;4768;42.664;23.240;2023-07-31T13:28:10;3.95;;;3.65;;
9459;SDS011;4768;42.664;23.240;2023-07-31T13:30:36;4.50;;;3.03;;
9459;SDS011;4768;42.664;23.240;2023-07-31T13:33:03;3.20;;;2.90;;
9459;SDS011;4768;42.664;23.240;2023-07-31T13:35:29;3.67;;;3.38;;
9459;SDS011;4768;42.664;23.240;2023-07-31T13:37:56;3.00;;;2.80;;
9459;SDS011;4768;42.664;23.240;2023-07-31T13:40:23;2.95;;;2.63;;
9459;SDS011;4768;42.664;23.240;2023-07-31T13:42:50;3.45;;;3.15;;
9459;SDS011;4768;42.664;23.240;2023-07-31T13:45:18;3.90;;;3.50;;
9459;SDS011;4768;42.664;23.240;2023-07-31T13:47:44;3.60;;;3.30;;
9459;SDS011;4768;42.664;23.240;2023-07-31T13:50:11;4.30;;;3.20;;
9459;SDS011;4768;42.664;23.240;2023-07-31T13:52:37;3.10;;;2.90;;
9459;SDS011;4768;42.664;23.240;2023-07-31T13:55:04;3.28;;;2.97;;
9459;SDS011;4768;42.664;23.240;2023-07-31T13:57:31;3.10;;;2.90;;
9459;SDS011;4768;42.664;23.240;2023-07-31T13:59:59;5.15;;;3.20;;
9459;SDS011;4768;42.664;23.240;2023-07-31T14:02:25;5.82;;;3.25;;
9459;SDS011;4768;42.664;23.240;2023-07-31T14:04:51;3.90;;;3.60;;
9459;SDS011;4768;42.664;23.240;2023-07-31T14:07:18;3.47;;;3.17;;
9459;SDS011;4768;42.664;23.240;2023-07-31T14:09:44;3.50;;;3.20;;
9459;SDS011;4768;42.664;23.240;2023-07-31T14:12:11;4.18;;;2.97;;
9459;SDS011;4768;42.664;23.240;2023-07-31T14:14:37;3.50;;;3.20;;
9459;SDS011;4768;42.664;23.240;2023-07-31T14:17:05;3.40;;;3.10;;
9459;SDS011;4768;42.664;23.240;2023-07-31T14:19:32;3.00;;;2.78;;
9459;SDS011;4768;42.664;23.240;2023-07-31T14:21:58;3.55;;;3.17;;
9459;SDS011;4768;42.664;23.240;2023-07-31T14:24:25;2.95;;;2.75;;
9459;SDS011;4768;42.664;23.240;2023-07-31T14:26:51;3.17;;;2.97;;
9459;SDS011;4768;42.664;23.240;2023-07-31T14:29:18;2.97;;;2.78;;
9459;SDS011;4768;42.664;23.240;2023-07-31T14:31:44;3.33;;;3.03;;
9459;SDS011;4768;42.664;23.240;2023-07-31T14:34:12;2.95;;;2.72;;
9459;SDS011;4768;42.664;23.240;2023-07-31T14:36:38;2.58;;;2.38;;
9459;SDS011;4768;42.664;23.240;2023-07-31T14:39:05;3.70;;;3.08;;
9459;SDS011;4768;42.664;23.240;2023-07-31T14:41:31;2.60;;;2.40;;
9459;SDS011;4768;42.664;23.240;2023-07-31T14:43:58;2.85;;;2.55;;
9459;SDS011;4768;42.664;23.240;2023-07-31T14:46:24;3.08;;;2.78;;
9459;SDS011;4768;42.664;23.240;2023-07-31T14:48:51;2.83;;;2.63;;
9459;SDS011;4768;42.664;23.240;2023-07-31T14:51:19;3.08;;;2.80;;